Time,TemperatureF,DewpointF,PressureIn,WindDirection,WindDirectionDegrees,WindSpeedMPH,WindSpeedGustMPH,Humidity,HourlyPrecipIn,Conditions,Clouds,dailyrainin,SoftwareType,DateUTC
2013-02-19 00:02:00,39.0,26.0,-100.00,NW,305,11.0,16.0,59,0.00,,,-99.99,,2013-02-19 05:02:00,
2013-02-19 00:12:00,39.0,26.0,-100.00,WNW,300,12.0,18.0,59,0.00,,,-99.99,,2013-02-19 05:12:00,
2013-02-19 00:22:00,39.0,26.0,-100.00,WNW,295,13.0,17.0,59,0.00,,,-99.99,,2013-02-19 05:22:00,
2013-02-19 00:32:00,40.0,27.0,-100.00,WNW,300,12.0,16.0,59,0.00,,,-99.99,,2013-02-19 05:32:00,
2013-02-19 00:43:00,40.0,27.0,-100.00,WNW,295,12.0,17.0,59,0.00,,,-99.99,,2013-02-19 05:43:00,
2013-02-19 00:52:00,40.0,27.0,-100.00,WNW,300,11.0,16.0,59,0.00,,,-99.99,,2013-02-19 05:52:00,
2013-02-19 01:03:00,40.0,28.0,-100.00,NW,310,12.0,17.0,60,0.00,,,-99.99,,2013-02-19 06:03:00,
2013-02-19 01:12:00,41.0,28.0,-100.00,NW,315,13.0,18.0,60,0.00,,,-99.99,,2013-02-19 06:12:00,
2013-02-19 01:22:00,41.0,28.0,-100.00,NW,305,11.0,16.0,60,0.00,,,-99.99,,2013-02-19 06:22:00,
2013-02-19 01:32:00,41.0,28.0,-100.00,WNW,300,10.0,15.0,60,0.00,,,-99.99,,2013-02-19 06:32:00,
2013-02-19 01:42:00,42.0,29.0,-100.00,NW,310,12.0,15.0,59,0.00,,,-99.99,,2013-02-19 06:42:00,
2013-02-19 01:52:00,42.0,29.0,-100.00,NW,310,14.0,17.0,58,0.00,,,-99.99,,2013-02-19 06:52:00,
2013-02-19 02:02:00,42.0,29.0,-100.00,NW,305,12.0,17.0,58,0.00,,,-99.99,,2013-02-19 07:02:00,
2013-02-19 02:11:00,43.0,29.0,-100.00,WNW,300,14.0,19.0,57,0.00,,,-99.99,,2013-02-19 07:11:00,
2013-02-19 02:22:00,44.0,30.0,-100.00,NW,320,17.0,26.0,56,0.00,,,-99.99,,2013-02-19 07:22:00,
2013-02-19 02:32:00,44.0,32.0,-100.00,NW,325,21.0,32.0,62,0.00,,,-99.99,,2013-02-19 07:32:00,
2013-02-19 02:42:00,44.0,34.0,-100.00,NNW,340,18.0,27.0,67,0.55,,,-99.99,,2013-02-19 07:42:00,
2013-02-19 02:52:00,42.0,35.0,-100.00,NNW,330,18.0,26.0,73,0.55,,,-99.99,,2013-02-19 07:52:00,
2013-02-19 03:02:00,41.0,37.0,-100.00,NW,320,20.0,31.0,84,0.55,,,-99.99,,2013-02-19 08:02:00,
2013-02-19 03:11:00,40.0,37.0,-100.00,NW,315,18.0,30.0,88,0.00,,,-99.99,,2013-02-19 08:11:00,
2013-02-19 03:21:00,40.0,38.0,-100.00,NW,305,16.0,22.0,90,0.00,,,-99.99,,2013-02-19 08:21:00,
2013-02-19 03:32:00,40.0,38.0,-100.00,WNW,300,14.0,21.0,91,0.00,,,-99.99,,2013-02-19 08:32:00,
2013-02-19 03:42:00,40.0,38.0,-100.00,NW,315,16.0,28.0,91,1.10,,,-99.99,,2013-02-19 08:42:00,
2013-02-19 03:52:00,40.0,38.0,-100.00,NW,305,16.0,24.0,93,0.55,,,-99.99,,2013-02-19 08:52:00,
2013-02-19 04:02:00,40.0,38.0,-100.00,NW,320,19.0,28.0,93,0.00,,,-99.99,,2013-02-19 09:02:00,
2013-02-19 04:11:00,40.0,38.0,-100.00,NW,320,19.0,28.0,93,0.00,,,-99.99,,2013-02-19 09:11:00,
2013-02-19 04:22:00,39.0,38.0,-100.00,WNW,295,16.0,22.0,95,0.00,,,-99.99,,2013-02-19 09:22:00,
2013-02-19 04:32:00,39.0,38.0,-100.00,WNW,300,16.0,26.0,95,0.00,,,-99.99,,2013-02-19 09:32:00,
2013-02-19 04:42:00,39.0,38.0,-100.00,WNW,300,16.0,27.0,95,0.00,,,-99.99,,2013-02-19 09:42:00,
2013-02-19 04:53:00,39.0,38.0,-100.00,WNW,295,17.0,26.0,95,0.00,,,-99.99,,2013-02-19 09:53:00,
2013-02-19 05:02:00,39.0,38.0,-100.00,NW,310,17.0,27.0,95,0.00,,,-99.99,,2013-02-19 10:02:00,
2013-02-19 05:11:00,39.0,38.0,-100.00,NW,305,15.0,28.0,95,0.00,,,-99.99,,2013-02-19 10:11:00,
2013-02-19 05:22:00,39.0,38.0,-100.00,NW,315,24.0,30.0,95,0.00,,,-99.99,,2013-02-19 10:22:00,
2013-02-19 05:32:00,39.0,38.0,-100.00,NW,320,22.0,32.0,95,0.00,,,-99.99,,2013-02-19 10:32:00,
2013-02-19 05:42:00,39.0,38.0,-100.00,NW,310,18.0,27.0,95,0.00,,,-99.99,,2013-02-19 10:42:00,
2013-02-19 05:51:00,38.0,37.0,-100.00,NW,320,22.0,28.0,95,0.00,,,-99.99,,2013-02-19 10:51:00,
2013-02-19 06:01:00,38.0,37.0,-100.00,NW,315,17.0,27.0,95,0.00,,,-99.99,,2013-02-19 11:01:00,
2013-02-19 06:11:00,39.0,38.0,-100.00,NW,315,21.0,29.0,95,0.00,,,-99.99,,2013-02-19 11:11:00,
2013-02-19 06:22:00,39.0,38.0,-100.00,NW,315,20.0,27.0,95,0.00,,,-99.99,,2013-02-19 11:22:00,
2013-02-19 06:32:00,39.0,38.0,-100.00,NW,315,17.0,28.0,95,0.00,,,-99.99,,2013-02-19 11:32:00,
2013-02-19 06:42:00,39.0,38.0,-100.00,NW,310,17.0,27.0,96,0.00,,,-99.99,,2013-02-19 11:42:00,
2013-02-19 06:52:00,39.0,38.0,-100.00,NW,320,18.0,24.0,96,0.00,,,-99.99,,2013-02-19 11:52:00,
2013-02-19 07:02:00,39.0,38.0,-100.00,NNW,330,17.0,26.0,96,0.00,,,-99.99,,2013-02-19 12:02:00,
2013-02-19 07:12:00,40.0,38.0,-100.00,NW,320,20.0,27.0,96,0.00,,,-99.99,,2013-02-19 12:12:00,
2013-02-19 07:22:00,40.0,39.0,-100.00,NW,325,17.0,30.0,95,0.00,,,-99.99,,2013-02-19 12:22:00,
2013-02-19 07:32:00,40.0,39.0,-100.00,NW,325,16.0,30.0,95,0.00,,,-99.99,,2013-02-19 12:32:00,
2013-02-19 07:42:00,40.0,39.0,-100.00,NW,320,17.0,28.0,95,0.00,,,-99.99,,2013-02-19 12:42:00,
2013-02-19 07:52:00,40.0,39.0,-100.00,NNW,330,17.0,25.0,95,0.00,,,-99.99,,2013-02-19 12:52:00,
2013-02-19 08:02:00,40.0,39.0,-100.00,NNW,330,17.0,25.0,95,0.00,,,-99.99,,2013-02-19 13:02:00,
2013-02-19 08:11:00,40.0,39.0,-100.00,NNW,330,19.0,27.0,95,0.00,,,-99.99,,2013-02-19 13:11:00,
2013-02-19 08:22:00,41.0,39.0,-100.00,NNW,330,19.0,28.0,94,0.00,,,-99.99,,2013-02-19 13:22:00,
2013-02-19 08:32:00,41.0,39.0,-100.00,NNW,335,17.0,24.0,94,0.00,,,-99.99,,2013-02-19 13:32:00,
2013-02-19 08:42:00,41.0,39.0,-100.00,NNW,340,12.0,24.0,94,0.55,,,-99.99,,2013-02-19 13:42:00,
2013-02-19 08:52:00,41.0,40.0,-100.00,NNW,335,16.0,24.0,94,0.00,,,-99.99,,2013-02-19 13:52:00,
2013-02-19 09:02:00,41.0,40.0,-100.00,NNW,340,9.0,21.0,95,0.00,,,-99.99,,2013-02-19 14:02:00,
2013-02-19 09:12:00,41.0,40.0,-100.00,North,5,9.0,16.0,95,0.00,,,-99.99,,2013-02-19 14:12:00,
2013-02-19 09:22:00,38.0,37.0,-100.00,NE,40,10.0,18.0,96,0.00,,,-99.99,,2013-02-19 14:22:00,
2013-02-19 09:33:00,38.0,37.0,-100.00,NE,40,10.0,18.0,96,0.00,,,-99.99,,2013-02-19 14:33:00,
2013-02-19 09:42:00,36.0,36.0,-100.00,NNE,20,9.0,15.0,98,0.00,,,-99.99,,2013-02-19 14:42:00,
2013-02-19 09:52:00,36.0,36.0,-100.00,NNE,20,9.0,15.0,98,0.00,,,-99.99,,2013-02-19 14:52:00,
2013-02-19 10:02:00,36.0,36.0,-100.00,NNE,25,9.0,17.0,99,0.00,,,-99.99,,2013-02-19 15:02:00,
2013-02-19 10:11:00,35.0,35.0,-100.00,NNE,25,13.0,20.0,98,0.00,,,-99.99,,2013-02-19 15:11:00,
2013-02-19 10:21:00,35.0,34.0,-100.00,NNE,20,11.0,19.0,98,0.00,,,-99.99,,2013-02-19 15:21:00,
2013-02-19 10:32:00,35.0,34.0,-100.00,NNE,20,12.0,27.0,96,0.00,,,-99.99,,2013-02-19 15:32:00,
2013-02-19 10:42:00,34.0,33.0,-100.00,NNE,25,12.0,24.0,95,0.00,,,-99.99,,2013-02-19 15:42:00,
2013-02-19 10:52:00,34.0,33.0,-100.00,NNE,25,13.0,23.0,95,0.00,,,-99.99,,2013-02-19 15:52:00,
2013-02-19 11:02:00,34.0,33.0,-100.00,NNE,20,12.0,21.0,94,0.00,,,-99.99,,2013-02-19 16:02:00,
2013-02-19 11:11:00,33.0,32.0,-100.00,NE,35,15.0,23.0,95,0.00,,,-99.99,,2013-02-19 16:11:00,
2013-02-19 11:22:00,33.0,32.0,-100.00,NNE,20,11.0,20.0,96,0.00,,,-99.99,,2013-02-19 16:22:00,
2013-02-19 11:32:00,32.0,31.0,-100.00,NNE,25,11.0,23.0,95,0.00,,,-99.99,,2013-02-19 16:32:00,
2013-02-19 11:42:00,32.0,30.0,-100.00,NNE,30,13.0,19.0,92,0.00,,,-99.99,,2013-02-19 16:42:00,
2013-02-19 11:51:00,31.0,29.0,-100.00,NNE,25,14.0,25.0,91,0.00,,,-99.99,,2013-02-19 16:51:00,
2013-02-19 12:01:00,32.0,29.0,-100.00,NNE,25,14.0,22.0,91,0.00,,,-99.99,,2013-02-19 17:01:00,
2013-02-19 12:11:00,31.0,29.0,-100.00,NNE,15,13.0,21.0,90,0.00,,,-99.99,,2013-02-19 17:11:00,
2013-02-19 12:21:00,31.0,29.0,-100.00,NNE,25,15.0,22.0,90,0.00,,,-99.99,,2013-02-19 17:21:00,
2013-02-19 12:32:00,31.0,28.0,-100.00,NNE,25,12.0,19.0,91,0.00,,,-99.99,,2013-02-19 17:32:00,
2013-02-19 12:42:00,30.0,27.0,-100.00,NNE,15,19.0,25.0,90,0.00,,,-99.99,,2013-02-19 17:42:00,
2013-02-19 12:52:00,30.0,27.0,-100.00,NNE,15,19.0,25.0,90,0.00,,,-99.99,,2013-02-19 17:52:00,
2013-02-19 13:02:00,30.0,26.0,-100.00,NNE,25,12.0,22.0,84,0.00,,,-99.99,,2013-02-19 18:02:00,
2013-02-19 13:11:00,30.0,25.0,-100.00,NNE,20,14.0,27.0,81,0.00,,,-99.99,,2013-02-19 18:11:00,
2013-02-19 13:21:00,29.0,25.0,-100.00,NNE,20,14.0,24.0,82,0.00,,,-99.99,,2013-02-19 18:21:00,
2013-02-19 13:32:00,29.0,22.0,-100.00,North,5,16.0,25.0,75,0.00,,,-99.99,,2013-02-19 18:32:00,
2013-02-19 13:42:00,29.0,22.0,-100.00,NNE,25,19.0,30.0,72,0.00,,,-99.99,,2013-02-19 18:42:00,
2013-02-19 13:52:00,29.0,22.0,-100.00,NNE,15,17.0,31.0,72,0.00,,,-99.99,,2013-02-19 18:52:00,
2013-02-19 14:01:00,29.0,22.0,-100.00,NNE,15,17.0,31.0,72,0.00,,,-99.99,,2013-02-19 19:01:00,
2013-02-19 14:11:00,29.0,22.0,-100.00,North,350,10.0,23.0,72,0.00,,,-99.99,,2013-02-19 19:11:00,
2013-02-19 14:21:00,29.0,22.0,-100.00,NNE,25,11.0,20.0,73,0.00,,,-99.99,,2013-02-19 19:21:00,
2013-02-19 14:32:00,29.0,22.0,-100.00,North,10,11.0,17.0,73,0.00,,,-99.99,,2013-02-19 19:32:00,
2013-02-19 14:42:00,29.0,22.0,-100.00,North,10,11.0,19.0,74,0.00,,,-99.99,,2013-02-19 19:42:00,
2013-02-19 14:51:00,29.0,22.0,-100.00,NNE,15,14.0,25.0,74,0.00,,,-99.99,,2013-02-19 19:51:00,
2013-02-19 15:02:00,29.0,22.0,-100.00,NNE,15,9.0,19.0,75,0.00,,,-99.99,,2013-02-19 20:02:00,
2013-02-19 15:12:00,28.0,22.0,-100.00,NNE,15,11.0,20.0,77,0.00,,,-99.99,,2013-02-19 20:12:00,
2013-02-19 15:22:00,28.0,23.0,-100.00,North,5,12.0,23.0,79,0.00,,,-99.99,,2013-02-19 20:22:00,
2013-02-19 15:32:00,28.0,23.0,-100.00,North,10,12.0,19.0,81,0.00,,,-99.99,,2013-02-19 20:32:00,
2013-02-19 15:42:00,27.0,23.0,-100.00,North,0,12.0,23.0,82,0.00,,,-99.99,,2013-02-19 20:42:00,
2013-02-19 15:52:00,27.0,22.0,-100.00,NNE,15,14.0,26.0,80,0.00,,,-99.99,,2013-02-19 20:52:00,
2013-02-19 16:02:00,27.0,20.0,-100.00,North,10,13.0,34.0,75,0.00,,,-99.99,,2013-02-19 21:02:00,
2013-02-19 16:11:00,27.0,19.0,-100.00,North,5,12.0,28.0,73,0.00,,,-99.99,,2013-02-19 21:11:00,
2013-02-19 16:21:00,27.0,19.0,-100.00,North,5,13.0,21.0,73,0.00,,,-99.99,,2013-02-19 21:21:00,
2013-02-19 16:32:00,27.0,19.0,-100.00,North,5,13.0,21.0,73,0.00,,,-99.99,,2013-02-19 21:32:00,
2013-02-19 16:42:00,26.0,20.0,-100.00,NNE,25,13.0,18.0,76,0.00,,,-99.99,,2013-02-19 21:42:00,
2013-02-19 16:51:00,26.0,21.0,-100.00,NNE,15,9.0,19.0,82,0.00,,,-99.99,,2013-02-19 21:51:00,
2013-02-19 17:02:00,25.0,21.0,-100.00,NNE,20,12.0,18.0,84,0.00,,,-99.99,,2013-02-19 22:02:00,
2013-02-19 17:11:00,25.0,20.0,-100.00,NNE,25,17.0,28.0,82,0.00,,,-99.99,,2013-02-19 22:11:00,
2013-02-19 17:21:00,25.0,20.0,-100.00,NNE,20,14.0,26.0,81,0.00,,,-99.99,,2013-02-19 22:21:00,
2013-02-19 17:32:00,24.0,20.0,-100.00,NNE,20,15.0,24.0,81,0.00,,,-99.99,,2013-02-19 22:32:00,
2013-02-19 17:42:00,24.0,20.0,-100.00,North,10,16.0,24.0,85,0.00,,,-99.99,,2013-02-19 22:42:00,
2013-02-19 17:52:00,24.0,21.0,-100.00,NNE,20,12.0,24.0,89,0.00,,,-99.99,,2013-02-19 22:52:00,
2013-02-19 18:01:00,23.0,21.0,-100.00,NNE,25,12.0,22.0,91,0.00,,,-99.99,,2013-02-19 23:01:00,
2013-02-19 18:11:00,23.0,21.0,-100.00,NNE,25,9.0,21.0,94,0.55,,,-99.99,,2013-02-19 23:11:00,
2013-02-19 18:21:00,22.0,21.0,-100.00,NNE,20,9.0,18.0,95,0.00,,,-99.99,,2013-02-19 23:21:00,
2013-02-19 18:32:00,22.0,21.0,-100.00,NNE,30,12.0,24.0,94,0.00,,,-99.99,,2013-02-19 23:32:00,
2013-02-19 18:42:00,22.0,20.0,-100.00,NNE,15,14.0,26.0,92,0.00,,,-99.99,,2013-02-19 23:42:00,
2013-02-19 18:52:00,22.0,20.0,-100.00,NNE,25,12.0,22.0,91,0.00,,,-99.99,,2013-02-19 23:52:00,
2013-02-19 19:01:00,22.0,20.0,-100.00,NNE,20,12.0,18.0,91,0.00,,,-99.99,,2013-02-20 00:01:00,
2013-02-19 19:11:00,22.0,20.0,-100.00,NNE,25,11.0,21.0,92,0.00,,,-99.99,,2013-02-20 00:11:00,
2013-02-19 19:21:00,22.0,21.0,-100.00,NNE,25,12.0,20.0,92,0.00,,,-99.99,,2013-02-20 00:21:00,
2013-02-19 19:32:00,22.0,21.0,-100.00,NE,35,13.0,21.0,92,0.00,,,-99.99,,2013-02-20 00:32:00,
2013-02-19 19:42:00,22.0,20.0,-100.00,NNE,20,14.0,23.0,92,0.00,,,-99.99,,2013-02-20 00:42:00,
2013-02-19 19:52:00,22.0,20.0,-100.00,NNE,25,14.0,24.0,92,0.00,,,-99.99,,2013-02-20 00:52:00,
2013-02-19 20:02:00,22.0,20.0,-100.00,NNE,25,14.0,24.0,92,0.00,,,-99.99,,2013-02-20 01:02:00,
2013-02-19 20:11:00,21.0,19.0,-100.00,NNE,30,13.0,24.0,88,0.00,,,-99.99,,2013-02-20 01:11:00,
2013-02-19 20:21:00,21.0,19.0,-100.00,NNE,20,11.0,26.0,90,0.00,,,-99.99,,2013-02-20 01:21:00,
2013-02-19 20:32:00,20.0,17.0,-100.00,NNE,20,12.0,24.0,89,0.00,,,-99.99,,2013-02-20 01:32:00,
2013-02-19 20:42:00,20.0,16.0,-100.00,NNE,15,12.0,20.0,85,0.00,,,-99.99,,2013-02-20 01:42:00,
2013-02-19 20:52:00,20.0,15.0,-100.00,NNE,20,14.0,24.0,83,0.00,,,-99.99,,2013-02-20 01:52:00,
2013-02-19 21:02:00,19.0,16.0,-100.00,NNE,25,12.0,24.0,87,0.00,,,-99.99,,2013-02-20 02:02:00,
2013-02-19 21:11:00,19.0,16.0,-100.00,NNE,25,14.0,21.0,89,0.00,,,-99.99,,2013-02-20 02:11:00,
2013-02-19 21:21:00,19.0,16.0,-100.00,NNE,15,9.0,17.0,90,0.00,,,-99.99,,2013-02-20 02:21:00,
2013-02-19 21:32:00,18.0,17.0,-100.00,NNE,20,13.0,21.0,92,0.00,,,-99.99,,2013-02-20 02:32:00,
2013-02-19 21:42:00,18.0,17.0,-100.00,NNE,20,9.0,22.0,92,0.00,,,-99.99,,2013-02-20 02:42:00,
2013-02-19 21:52:00,18.0,17.0,-100.00,NNE,15,8.0,16.0,93,0.00,,,-99.99,,2013-02-20 02:52:00,
2013-02-19 22:02:00,18.0,17.0,-100.00,NNE,30,11.0,21.0,93,0.00,,,-99.99,,2013-02-20 03:02:00,
2013-02-19 22:12:00,18.0,17.0,-100.00,NNE,30,11.0,15.0,93,0.00,,,-99.99,,2013-02-20 03:12:00,
2013-02-19 22:22:00,18.0,17.0,-100.00,NNE,25,11.0,16.0,93,0.00,,,-99.99,,2013-02-20 03:22:00,
2013-02-19 22:32:00,18.0,17.0,-100.00,NNE,20,12.0,19.0,92,0.00,,,-99.99,,2013-02-20 03:32:00,
2013-02-19 22:42:00,18.0,16.0,-100.00,NNE,25,12.0,22.0,92,0.00,,,-99.99,,2013-02-20 03:42:00,
2013-02-19 22:52:00,18.0,16.0,-100.00,NNE,25,13.0,19.0,92,0.00,,,-99.99,,2013-02-20 03:52:00,
2013-02-19 23:01:00,18.0,16.0,-100.00,NNE,30,14.0,20.0,92,0.00,,,-99.99,,2013-02-20 04:01:00,
2013-02-19 23:11:00,18.0,16.0,-100.00,NNE,25,12.0,19.0,91,0.00,,,-99.99,,2013-02-20 04:11:00,
2013-02-19 23:21:00,18.0,16.0,-100.00,NNE,30,10.0,21.0,89,0.00,,,-99.99,,2013-02-20 04:21:00,
2013-02-19 23:32:00,18.0,16.0,-100.00,NNE,30,10.0,21.0,89,0.00,,,-99.99,,2013-02-20 04:32:00,
2013-02-19 23:42:00,18.0,16.0,-100.00,NNE,25,10.0,18.0,89,0.00,,,-99.99,,2013-02-20 04:42:00,
2013-02-19 23:52:00,18.0,16.0,-100.00,NNE,30,11.0,21.0,91,0.00,,,-99.99,,2013-02-20 04:52:00,